Time;durP1;ratioP1;P1;durP2;ratioP2;P2;SDS_P1;SDS_P2;PMS_P1;PMS_P2;Temp;Humidity;BMP_temperature;BMP_pressure;BME280_temperature;BME280_humidity;BME280_pressure;Samples;Min_cycle;Max_cycle;Signal;HPM_P1;HPM_P2
2022/11/08 00:01:48;;;;;;;19.13;4.65;;;12.30;99.90;;;;;;5113438;28;20461;-71
2022/11/08 00:04:15;;;;;;;25.38;5.35;;;12.40;99.90;;;;;;5112186;28;20047;-68
2022/11/08 00:14:56;;;;;;;17.17;4.20;;;12.40;99.90;;;;;;5113284;28;20050;-69
2022/11/08 00:17:23;;;;;;;16.73;4.55;;;12.70;99.90;;;;;;5113252;28;20051;-68
2022/11/08 00:19:49;;;;;;;19.20;4.40;;;12.30;99.90;;;;;;5111793;28;20103;-69
2022/11/08 00:22:16;;;;;;;17.13;5.03;;;12.60;99.90;;;;;;5113104;28;20062;-69
2022/11/08 00:24:42;;;;;;;17.55;4.43;;;12.30;99.90;;;;;;5113113;28;20051;-69
2022/11/08 00:27:10;;;;;;;18.52;4.68;;;12.50;99.90;;;;;;5113273;28;20047;-68
2022/11/08 00:29:36;;;;;;;16.17;5.32;;;12.50;99.90;;;;;;5111762;28;20044;-69
2022/11/08 00:32:04;;;;;;;18.33;4.75;;;12.50;99.90;;;;;;5112960;28;20043;-68
2022/11/08 00:34:31;;;;;;;29.42;5.85;;;12.60;99.90;;;;;;5094745;28;20044;-68
2022/11/08 00:36:56;;;;;;;18.25;4.53;;;12.60;99.90;;;;;;5111566;28;20488;-68
2022/11/08 00:39:22;;;;;;;16.20;4.22;;;12.60;99.90;;;;;;5112879;28;20081;-69
2022/11/08 00:41:48;;;;;;;18.52;4.80;;;12.50;99.90;;;;;;5113075;28;20035;-69
2022/11/08 00:44:13;;;;;;;18.80;4.82;;;12.10;99.90;;;;;;5112826;28;20053;-69
2022/11/08 00:46:40;;;;;;;18.70;4.55;;;12.40;99.90;;;;;;5112843;28;20053;-70
2022/11/08 00:49:06;;;;;;;13.07;4.20;;;12.60;99.90;;;;;;5112988;28;20044;-68
2022/11/08 00:51:32;;;;;;;20.00;4.82;;;12.60;99.90;;;;;;5117179;28;20058;-69
2022/11/08 00:53:57;;;;;;;22.35;4.40;;;12.20;99.90;;;;;;5115796;28;20130;-69
2022/11/08 00:56:23;;;;;;;21.40;4.53;;;12.60;99.90;;;;;;5117073;28;20116;-68
2022/11/08 00:58:49;;;;;;;19.55;5.30;;;12.70;99.90;;;;;;5116920;28;20488;-72
2022/11/08 01:01:18;;;;;;;17.70;5.53;;;12.50;99.90;;;;;;5117023;28;20048;-70
2022/11/08 01:03:45;;;;;;;15.45;3.60;;;13.50;99.90;;;;;;5115299;28;20050;-68
2022/11/08 01:06:12;;;;;;;15.63;3.88;;;12.90;99.90;;;;;;5115476;28;20177;-68
2022/11/08 01:08:39;;;;;;;16.58;4.10;;;12.40;99.90;;;;;;5116641;28;20048;-69
2022/11/08 01:11:08;;;;;;;18.38;4.78;;;12.90;99.90;;;;;;5098783;28;20056;-70
2022/11/08 01:13:34;;;;;;;20.90;4.30;;;12.80;99.90;;;;;;5115337;28;20055;-69
2022/11/08 01:16:06;;;;;;;13.63;4.18;;;12.70;99.90;;;;;;5116527;28;20059;-70
2022/11/08 01:18:32;;;;;;;16.38;4.00;;;12.60;99.90;;;;;;5116253;28;20040;-69
2022/11/08 01:20:58;;;;;;;22.88;4.22;;;12.80;99.90;;;;;;5116899;28;20051;-69
2022/11/08 01:23:23;;;;;;;19.02;4.05;;;12.50;99.90;;;;;;5116153;28;20036;-68
2022/11/08 01:25:49;;;;;;;14.82;4.18;;;12.70;99.90;;;;;;5116480;28;20051;-68
2022/11/08 01:28:15;;;;;;;12.27;4.18;;;13.10;99.90;;;;;;5115822;28;20142;-69
2022/11/08 01:30:42;;;;;;;12.52;3.88;;;12.50;99.90;;;;;;5116453;28;20126;-70
2022/11/08 01:33:09;;;;;;;13.80;3.78;;;12.50;99.90;;;;;;5116083;28;20449;-69
2022/11/08 01:35:35;;;;;;;;;;;12.80;99.90;;;;;;5116738;28;20116;-71
2022/11/08 01:38:01;;;;;;;12.48;3.83;;;12.70;99.90;;;;;;5116307;28;19920;-69
2022/11/08 01:40:28;;;;;;;19.50;4.07;;;12.60;99.90;;;;;;5116152;28;20043;-69
2022/11/08 01:42:54;;;;;;;17.60;4.38;;;12.70;99.90;;;;;;5116276;28;20395;-69
2022/11/08 01:45:57;;;;;;;12.27;3.40;;;12.40;99.90;;;;;;5114923;28;20052;-71
2022/11/08 01:48:26;;;;;;;14.63;3.50;;;12.60;99.90;;;;;;5115699;28;20395;-69
2022/11/08 01:50:53;;;;;;;20.85;4.00;;;12.60;99.90;;;;;;5116035;28;20043;-68
2022/11/08 01:53:19;;;;;;;18.70;5.00;;;12.40;99.90;;;;;;5116004;28;20050;-68
2022/11/08 01:55:46;;;;;;;20.95;3.80;;;12.60;99.90;;;;;;5114754;28;20052;-71
2022/11/08 01:58:21;;;;;;;17.25;4.80;;;12.30;99.90;;;;;;5115897;28;20039;-69
2022/11/08 02:00:47;;;;;;;16.13;3.70;;;12.10;99.90;;;;;;5115165;28;20044;-69
2022/11/08 02:03:17;;;;;;;13.30;3.60;;;12.30;99.90;;;;;;5114656;28;20054;-69
2022/11/08 02:05:44;;;;;;;16.25;3.92;;;12.30;99.90;;;;;;5116060;28;20044;-69
2022/11/08 02:08:24;;;;;;;14.77;3.65;;;12.20;99.90;;;;;;5115616;28;20047;-70
2022/11/08 02:10:52;;;;;;;20.27;5.00;;;12.40;99.90;;;;;;5115747;28;20047;-69
2022/11/08 02:13:28;;;;;;;17.02;4.00;;;12.10;99.90;;;;;;5114611;28;20094;-73
2022/11/08 02:15:55;;;;;;;16.50;3.88;;;13.00;99.90;;;;;;5115359;28;20048;-68
2022/11/08 02:18:23;;;;;;;20.08;3.90;;;12.20;99.90;;;;;;5115544;28;20433;-69
2022/11/08 02:21:21;;;;;;;17.02;3.97;;;12.20;99.90;;;;;;5115457;27;20122;-68
2022/11/08 02:23:51;;;;;;;17.15;3.35;;;12.10;99.90;;;;;;5115514;28;20134;-69
2022/11/08 02:26:19;;;;;;;12.32;3.55;;;12.00;99.90;;;;;;5115350;28;20090;-69
2022/11/08 02:28:47;;;;;;;17.42;3.78;;;12.10;99.90;;;;;;5115267;28;20059;-70
2022/11/08 02:31:15;;;;;;;19.38;4.30;;;12.20;99.90;;;;;;5115028;28;20052;-69
2022/11/08 02:33:41;;;;;;;18.13;3.85;;;12.40;99.90;;;;;;5114275;28;20055;-69
2022/11/08 02:36:11;;;;;;;10.75;4.00;;;11.90;99.90;;;;;;5115179;28;20145;-69
2022/11/08 02:38:41;;;;;;;17.17;4.00;;;11.90;99.90;;;;;;5115062;28;20077;-69
2022/11/08 02:41:07;;;;;;;12.75;3.42;;;12.50;99.90;;;;;;5115143;27;20130;-69
2022/11/08 02:43:33;;;;;;;14.85;4.00;;;11.90;99.90;;;;;;5115093;27;20126;-68
2022/11/08 02:45:59;;;;;;;11.38;3.50;;;11.80;99.90;;;;;;5114781;28;20421;-70
2022/11/08 02:48:24;;;;;;;;;;;12.00;99.90;;;;;;5115281;28;20050;-69
2022/11/08 02:50:50;;;;;;;18.98;4.32;;;12.00;99.90;;;;;;5114830;28;19923;-69
2022/11/08 02:53:17;;;;;;;15.23;3.85;;;11.60;99.90;;;;;;5114834;28;20423;-70
2022/11/08 02:55:43;;;;;;;15.95;3.80;;;12.20;99.90;;;;;;5114754;28;20424;-70
2022/11/08 02:58:09;;;;;;;9.38;3.70;;;11.70;99.90;;;;;;5113446;28;20054;-69
2022/11/08 03:00:35;;;;;;;15.45;3.22;;;11.50;99.90;;;;;;5114412;27;20043;-68
2022/11/08 03:03:00;;;;;;;17.42;4.07;;;11.60;99.90;;;;;;5114653;28;20372;-68
2022/11/08 03:05:27;;;;;;;14.75;3.60;;;11.80;99.90;;;;;;5114598;28;20051;-71
2022/11/08 03:07:54;;;;;;;15.00;3.80;;;11.30;99.90;;;;;;5114525;28;20035;-71
2022/11/08 03:10:20;;;;;;;13.50;3.47;;;11.40;99.90;;;;;;5114467;28;20046;-68
2022/11/08 03:12:46;;;;;;;11.15;3.17;;;11.50;99.90;;;;;;5113606;28;20052;-70
2022/11/08 03:15:13;;;;;;;15.02;3.80;;;11.70;99.90;;;;;;5113121;28;20043;-70
2022/11/08 03:17:39;;;;;;;14.10;3.40;;;11.50;99.90;;;;;;5114308;28;20097;-69
2022/11/08 03:20:06;;;;;;;14.75;4.13;;;12.40;99.90;;;;;;5114289;28;20043;-70
2022/11/08 03:22:32;;;;;;;13.32;3.38;;;11.40;99.90;;;;;;5114241;28;20093;-70
2022/11/08 03:24:58;;;;;;;19.42;3.47;;;11.50;99.90;;;;;;5114227;28;20043;-69
2022/11/08 03:27:23;;;;;;;12.35;4.25;;;11.80;99.90;;;;;;5113802;28;20042;-70
2022/11/08 03:29:49;;;;;;;16.98;4.28;;;11.30;99.90;;;;;;5114224;28;20047;-69
2022/11/08 03:32:15;;;;;;;14.35;3.67;;;11.60;99.90;;;;;;5114024;28;20040;-69
2022/11/08 03:34:41;;;;;;;;;;;11.00;99.90;;;;;;5114480;28;20387;-72
2022/11/08 03:37:08;;;;;;;11.40;3.53;;;11.40;99.90;;;;;;5113885;28;19920;-70
2022/11/08 03:39:34;;;;;;;12.50;3.38;;;11.00;99.90;;;;;;5113934;28;20078;-69
2022/11/08 03:42:01;;;;;;;16.08;4.40;;;11.30;99.90;;;;;;5113837;28;20043;-68
2022/11/08 03:44:31;;;;;;;12.05;3.83;;;11.10;99.90;;;;;;5112307;28;20048;-69
2022/11/08 03:46:58;;;;;;;15.40;4.30;;;11.30;99.90;;;;;;5113758;28;20043;-70
2022/11/08 03:49:24;;;;;;;11.63;3.70;;;10.90;99.90;;;;;;5112452;28;20398;-69
2022/11/08 03:51:49;;;;;;;15.02;3.55;;;11.00;99.90;;;;;;5113785;28;20043;-69
2022/11/08 03:54:15;;;;;;;16.23;4.07;;;10.80;99.90;;;;;;5113669;28;20058;-68
2022/11/08 03:56:41;;;;;;;13.02;3.42;;;11.10;99.90;;;;;;5113372;28;20047;-69
2022/11/08 03:59:07;;;;;;;12.07;3.78;;;10.80;99.90;;;;;;5112350;28;20114;-71
2022/11/08 04:01:32;;;;;;;14.25;4.10;;;11.00;99.90;;;;;;5113575;28;20126;-72
2022/11/08 04:03:58;;;;;;;17.80;4.72;;;10.90;99.90;;;;;;5095560;28;20100;-70
2022/11/08 04:06:24;;;;;;;15.93;3.88;;;12.10;99.90;;;;;;5113512;28;20039;-69
2022/11/08 04:08:49;;;;;;;17.70;3.65;;;10.80;99.90;;;;;;5113380;28;20054;-68
2022/11/08 04:16:44;;;;;;;20.40;4.22;;;13.00;99.90;;;;;;5113414;28;20047;-69
2022/11/08 04:21:54;;;;;;;11.90;3.97;;;11.20;99.90;;;;;;5112398;28;20418;-69
2022/11/08 04:24:20;;;;;;;18.13;3.85;;;10.70;99.90;;;;;;5112055;28;20153;-69
2022/11/08 04:26:46;;;;;;;16.00;4.63;;;11.40;99.90;;;;;;5111946;28;20085;-68
2022/11/08 04:29:12;;;;;;;16.95;3.78;;;10.90;99.90;;;;;;5112718;28;20105;-70
2022/11/08 04:31:38;;;;;;;13.35;3.45;;;10.80;99.90;;;;;;5113201;28;20160;-69
2022/11/08 04:34:04;;;;;;;10.05;3.35;;;11.10;99.90;;;;;;5113163;28;20129;-69
2022/11/08 04:36:30;;;;;;;10.55;3.75;;;10.80;99.90;;;;;;5113238;28;20090;-68
2022/11/08 04:38:56;;;;;;;13.55;3.70;;;11.10;99.90;;;;;;5113180;28;20045;-68
2022/11/08 04:41:24;;;;;;;12.95;3.80;;;11.00;99.90;;;;;;5112791;28;20047;-71
2022/11/08 04:43:53;;;;;;;14.40;4.93;;;10.90;99.90;;;;;;5113071;28;20078;-69
2022/11/08 04:46:21;;;;;;;8.45;3.80;;;10.70;99.90;;;;;;5113056;28;20040;-68
2022/11/08 04:48:50;;;;;;;11.13;4.28;;;10.70;99.90;;;;;;5112992;28;20050;-68
2022/11/08 04:51:18;;;;;;;15.98;4.30;;;11.60;99.90;;;;;;5113006;28;20050;-68
2022/11/08 04:53:45;;;;;;;11.98;3.67;;;11.30;99.90;;;;;;5112963;28;20048;-68
2022/11/08 04:56:19;;;;;;;15.07;4.32;;;10.60;99.90;;;;;;5112977;28;20048;-68
2022/11/08 04:58:47;;;;;;;12.57;3.72;;;10.80;99.90;;;;;;5113048;28;20094;-69
2022/11/08 05:01:16;;;;;;;14.20;4.25;;;10.60;99.90;;;;;;5112934;28;20082;-69
2022/11/08 05:03:44;;;;;;;16.30;3.80;;;10.90;99.90;;;;;;5112878;28;20047;-71
2022/11/08 05:06:13;;;;;;;10.55;3.55;;;11.40;99.90;;;;;;5112876;28;20052;-69
2022/11/08 05:08:39;;;;;;;11.35;4.15;;;11.00;99.90;;;;;;5112763;28;20067;-69
2022/11/08 05:11:10;;;;;;;13.40;3.65;;;11.20;99.90;;;;;;5112603;28;20059;-69
2022/11/08 05:13:37;;;;;;;12.05;3.88;;;11.20;99.90;;;;;;5112536;28;20388;-68
2022/11/08 05:16:06;;;;;;;11.00;3.88;;;11.30;99.90;;;;;;5111580;28;20399;-69
2022/11/08 05:18:32;;;;;;;10.38;3.70;;;11.00;99.90;;;;;;5112447;28;20039;-68
2022/11/08 05:23:43;;;;;;;14.82;3.65;;;11.30;99.90;;;;;;5112436;28;19934;-69
2022/11/08 05:26:09;;;;;;;11.07;4.00;;;11.00;99.90;;;;;;5112713;28;20050;-68
2022/11/08 05:28:35;;;;;;;8.55;3.90;;;11.80;99.90;;;;;;5112345;28;20055;-68
2022/11/08 05:31:02;;;;;;;12.82;3.53;;;11.10;99.90;;;;;;5112529;28;20051;-70
2022/11/08 05:33:28;;;;;;;12.20;3.75;;;10.80;99.90;;;;;;5112624;28;20052;-69
2022/11/08 05:35:54;;;;;;;11.18;3.60;;;11.30;99.90;;;;;;5113060;28;20051;-69
2022/11/08 05:38:20;;;;;;;10.88;3.85;;;11.00;99.90;;;;;;5116057;28;20120;-68
2022/11/08 05:40:46;;;;;;;10.23;3.80;;;11.00;99.90;;;;;;5116314;27;20054;-69
2022/11/08 05:43:12;;;;;;;11.48;4.13;;;10.70;99.90;;;;;;5115109;28;20040;-69
2022/11/08 05:45:37;;;;;;;11.07;3.88;;;10.70;99.90;;;;;;5116227;28;20043;-70
2022/11/08 05:48:04;;;;;;;11.52;3.78;;;10.90;99.90;;;;;;5116097;28;20036;-70
2022/11/08 05:50:34;;;;;;;16.10;4.20;;;10.60;99.90;;;;;;5116112;28;20104;-68
2022/11/08 05:53:00;;;;;;;11.75;3.70;;;10.50;99.90;;;;;;5115824;28;20403;-69
2022/11/08 05:55:26;;;;;;;12.18;4.38;;;10.40;99.90;;;;;;5116019;28;20040;-69
2022/11/08 05:57:52;;;;;;;;;;;10.90;99.90;;;;;;5116391;28;20476;-69
2022/11/08 06:00:18;;;;;;;12.10;3.70;;;10.40;99.90;;;;;;5114818;28;19949;-69
2022/11/08 06:02:44;;;;;;;20.42;4.05;;;10.40;99.90;;;;;;5115822;28;20044;-69
2022/11/08 06:05:10;;;;;;;12.65;3.75;;;11.30;99.90;;;;;;5115531;27;20047;-70
2022/11/08 06:07:36;;;;;;;15.65;4.00;;;10.10;99.90;;;;;;5115409;28;20043;-69
2022/11/08 06:10:03;;;;;;;12.65;3.83;;;10.50;99.90;;;;;;5115706;28;20494;-69
2022/11/08 06:12:29;;;;;;;12.55;3.65;;;10.20;99.90;;;;;;5114691;28;20051;-68
2022/11/08 06:14:54;;;;;;;15.00;3.85;;;10.40;99.90;;;;;;5115599;28;20375;-69
2022/11/08 06:17:20;;;;;;;8.65;3.63;;;10.40;99.90;;;;;;5115667;28;20051;-69
2022/11/08 06:19:46;;;;;;;18.98;4.25;;;10.20;99.90;;;;;;5115532;28;20599;-69
2022/11/08 06:22:11;;;;;;;11.50;3.63;;;11.00;99.90;;;;;;5115215;27;20560;-69
2022/11/08 06:24:37;;;;;;;10.00;3.47;;;10.60;99.90;;;;;;5115696;28;20109;-68
2022/11/08 06:27:03;;;;;;;9.60;3.45;;;10.40;99.90;;;;;;5115049;28;20138;-69
2022/11/08 06:29:28;;;;;;;15.05;3.28;;;10.20;99.90;;;;;;5115186;28;20059;-70
2022/11/08 06:31:54;;;;;;;15.85;3.95;;;10.40;99.90;;;;;;5114312;28;20051;-69
2022/11/08 06:34:20;;;;;;;14.52;4.13;;;10.40;99.90;;;;;;5114996;28;20082;-69
2022/11/08 06:36:46;;;;;;;12.15;3.47;;;10.70;99.90;;;;;;5096611;28;20049;-68
2022/11/08 06:39:11;;;;;;;10.48;3.88;;;10.60;99.90;;;;;;5115370;28;20050;-69
2022/11/08 06:41:37;;;;;;;10.15;3.30;;;10.30;99.90;;;;;;5115106;28;20044;-69
2022/11/08 06:44:03;;;;;;;10.73;3.60;;;10.70;99.90;;;;;;5114931;28;20039;-68
2022/11/08 06:46:29;;;;;;;8.23;3.08;;;10.50;99.90;;;;;;5114890;28;20043;-70
2022/11/08 06:48:54;;;;;;;8.30;3.55;;;10.50;99.90;;;;;;5114679;28;20108;-69
2022/11/08 06:51:20;;;;;;;9.90;3.47;;;10.60;99.90;;;;;;5113423;28;20043;-68
2022/11/08 06:53:46;;;;;;;12.07;3.22;;;10.50;99.90;;;;;;5114934;28;20497;-68
2022/11/08 06:56:12;;;;;;;9.80;3.35;;;10.80;99.90;;;;;;5114817;28;20399;-69
2022/11/08 06:58:38;;;;;;;8.63;3.25;;;10.30;99.90;;;;;;5114381;28;20342;-68
2022/11/08 07:01:05;;;;;;;8.57;3.20;;;10.00;99.90;;;;;;5114739;28;20062;-72
2022/11/08 07:03:31;;;;;;;17.75;3.53;;;10.50;99.90;;;;;;5114571;28;20048;-70
2022/11/08 07:05:57;;;;;;;9.38;3.22;;;10.60;99.90;;;;;;5114374;28;20040;-68
2022/11/08 07:08:22;;;;;;;9.05;3.60;;;10.40;99.90;;;;;;5114486;28;20050;-69
2022/11/08 07:10:48;;;;;;;9.70;3.13;;;10.60;99.90;;;;;;5114473;28;20052;-70
2022/11/08 07:13:14;;;;;;;7.82;2.75;;;10.70;99.90;;;;;;5106738;27;20047;-71
2022/11/08 07:15:40;;;;;;;8.18;2.97;;;10.60;99.90;;;;;;5130397;27;20046;-69
2022/11/08 07:18:09;;;;;;;10.95;3.45;;;11.20;99.90;;;;;;5109905;28;20040;-75
2022/11/08 07:20:35;;;;;;;9.88;3.30;;;10.40;99.90;;;;;;5112549;28;20113;-69
2022/11/08 07:23:01;;;;;;;7.68;3.03;;;10.80;99.90;;;;;;5113354;28;20547;-69
2022/11/08 07:25:28;;;;;;;11.90;3.10;;;10.60;99.90;;;;;;5113870;28;20134;-69
2022/11/08 07:27:55;;;;;;;10.82;3.30;;;10.70;99.90;;;;;;5113042;28;20039;-69
2022/11/08 07:30:20;;;;;;;10.32;3.45;;;12.00;99.90;;;;;;5113674;28;20097;-69
2022/11/08 07:32:46;;;;;;;6.25;2.80;;;10.70;99.90;;;;;;5113534;28;20047;-70
2022/11/08 07:35:12;;;;;;;8.02;2.85;;;10.70;99.90;;;;;;5113016;28;20082;-71
2022/11/08 07:37:38;;;;;;;14.75;3.08;;;10.60;99.90;;;;;;5113832;28;20046;-70
2022/11/08 07:40:04;;;;;;;7.22;3.10;;;11.10;99.90;;;;;;5113554;28;20126;-72
2022/11/08 07:42:29;;;;;;;7.20;3.20;;;11.20;99.90;;;;;;5112905;28;20059;-70
2022/11/08 07:44:55;;;;;;;9.70;3.00;;;11.20;99.90;;;;;;5113558;28;20115;-70
2022/11/08 07:47:21;;;;;;;16.05;3.40;;;11.00;99.90;;;;;;5113468;28;20133;-71
2022/11/08 07:49:46;;;;;;;10.55;3.25;;;10.80;99.90;;;;;;5112550;28;20040;-70
2022/11/08 07:52:13;;;;;;;10.98;3.75;;;11.10;99.90;;;;;;5112424;28;20048;-70
2022/11/08 07:54:38;;;;;;;9.18;3.38;;;11.30;99.90;;;;;;5113159;28;20071;-71
2022/11/08 07:57:04;;;;;;;8.15;3.72;;;11.30;99.90;;;;;;5112739;28;20098;-71
2022/11/08 07:59:30;;;;;;;8.27;3.47;;;11.30;99.90;;;;;;5112690;28;20040;-70
2022/11/08 08:01:55;;;;;;;8.77;3.58;;;11.20;99.90;;;;;;5111960;28;20039;-71
2022/11/08 08:04:21;;;;;;;9.65;3.83;;;11.60;99.90;;;;;;5112265;28;20173;-73
2022/11/08 08:06:46;;;;;;;9.90;3.42;;;11.20;99.90;;;;;;5112855;28;20044;-70
2022/11/08 08:09:12;;;;;;;9.43;3.55;;;11.40;99.90;;;;;;5112764;28;20132;-70
2022/11/08 08:11:38;;;;;;;10.45;4.00;;;11.60;99.90;;;;;;5111377;28;20047;-70
2022/11/08 08:14:03;;;;;;;10.90;3.33;;;11.80;99.90;;;;;;5112913;28;20050;-73
2022/11/08 08:16:29;;;;;;;13.32;4.13;;;11.50;99.90;;;;;;5111764;28;20047;-73
2022/11/08 08:18:55;;;;;;;14.85;4.35;;;11.70;99.90;;;;;;5112543;28;20146;-71
2022/11/08 08:21:20;;;;;;;7.47;3.30;;;11.60;99.90;;;;;;5111665;28;20126;-73
2022/11/08 08:23:46;;;;;;;7.57;3.42;;;11.60;99.90;;;;;;5111586;28;20159;-71
2022/11/08 08:26:12;;;;;;;10.38;3.75;;;11.70;99.90;;;;;;5112804;28;20152;-69
2022/11/08 08:28:37;;;;;;;6.88;3.13;;;11.50;99.90;;;;;;5112027;28;20568;-70
2022/11/08 08:31:05;;;;;;;7.60;3.35;;;11.70;99.90;;;;;;5107099;28;20130;-66
2022/11/08 08:33:32;;;;;;;9.00;3.80;;;11.60;99.90;;;;;;5114347;28;20574;-67
2022/11/08 08:35:59;;;;;;;10.02;3.92;;;11.80;99.90;;;;;;5113839;27;20047;-67
2022/11/08 08:38:25;;;;;;;7.97;3.60;;;11.70;99.90;;;;;;5119129;27;20117;-70
2022/11/08 08:40:51;;;;;;;8.00;3.45;;;11.60;99.90;;;;;;5111002;28;20430;-68
2022/11/08 08:43:17;;;;;;;6.55;3.20;;;12.00;99.90;;;;;;5111073;28;20054;-73
2022/11/08 08:45:42;;;;;;;8.65;3.55;;;12.40;99.90;;;;;;5111582;28;20124;-69
2022/11/08 08:48:08;;;;;;;6.28;3.25;;;12.20;99.90;;;;;;5113838;28;20533;-65
2022/11/08 08:50:34;;;;;;;10.82;3.85;;;11.80;99.90;;;;;;5111633;28;20075;-68
2022/11/08 08:53:02;;;;;;;8.95;3.67;;;11.90;99.90;;;;;;5111347;28;20146;-68
2022/11/08 08:55:28;;;;;;;9.70;3.45;;;11.90;99.90;;;;;;5118474;28;20396;-69
2022/11/08 08:57:55;;;;;;;8.93;4.20;;;11.90;99.90;;;;;;5104121;28;20453;-70
2022/11/08 09:00:21;;;;;;;9.40;3.50;;;12.10;99.90;;;;;;5118959;28;20051;-74
2022/11/08 09:02:47;;;;;;;10.55;3.55;;;12.40;99.90;;;;;;5116979;28;20039;-72
2022/11/08 09:05:13;;;;;;;9.15;3.83;;;12.30;99.90;;;;;;5112224;27;20512;-68
2022/11/08 09:07:40;;;;;;;8.52;3.33;;;12.30;99.90;;;;;;5110789;28;20670;-67
2022/11/08 09:10:07;;;;;;;8.10;3.53;;;12.30;99.90;;;;;;5108502;28;20496;-69
2022/11/08 09:12:33;;;;;;;6.85;3.47;;;12.30;99.90;;;;;;5114624;28;20048;-68
2022/11/08 09:14:59;;;;;;;;;;;12.80;99.90;;;;;;5115295;28;20039;-82
2022/11/08 09:17:26;;;;;;;9.20;3.38;;;12.20;99.90;;;;;;5112396;28;20293;-67
2022/11/08 09:19:52;;;;;;;6.40;2.97;;;12.90;99.90;;;;;;5113930;28;20492;-72
2022/11/08 09:22:18;;;;;;;8.75;3.38;;;12.50;99.90;;;;;;5112649;28;20127;-67
2022/11/08 09:24:43;;;;;;;9.15;3.33;;;12.60;99.90;;;;;;5114827;28;20891;-70
2022/11/08 09:27:09;;;;;;;5.30;3.10;;;12.30;99.90;;;;;;5114380;28;20199;-69
2022/11/08 09:29:35;;;;;;;9.95;3.13;;;12.90;99.90;;;;;;5114290;28;20142;-69
2022/11/08 09:32:01;;;;;;;7.90;3.22;;;12.80;99.90;;;;;;5114429;27;20040;-70
2022/11/08 09:34:26;;;;;;;7.40;3.28;;;13.00;99.90;;;;;;5110534;27;20073;-68
2022/11/08 09:36:53;;;;;;;9.52;3.47;;;12.60;99.90;;;;;;5115144;28;20118;-68
2022/11/08 09:39:18;;;;;;;;;;;12.90;99.90;;;;;;5119084;27;20048;-67
2022/11/08 09:41:56;;;;;;;7.72;3.63;;;13.10;99.90;;;;;;5124905;27;19968;-65
2022/11/08 09:44:28;;;;;;;7.43;2.75;;;12.90;99.90;;;;;;5115835;27;20052;-68
2022/11/08 09:47:01;;;;;;;7.93;3.10;;;12.80;99.90;;;;;;5115339;28;20127;-69
2022/11/08 09:49:34;;;;;;;6.80;3.33;;;12.90;99.90;;;;;;5115324;28;20384;-68
2022/11/08 09:52:03;;;;;;;9.10;3.20;;;12.70;99.90;;;;;;5115693;28;20046;-68
2022/11/08 09:54:44;;;;;;;6.88;3.30;;;13.00;99.90;;;;;;5115457;28;20442;-68
2022/11/08 09:57:40;;;;;;;10.38;3.08;;;13.10;99.90;;;;;;5114709;28;20032;-68
2022/11/08 10:00:06;;;;;;;6.65;2.75;;;12.90;99.90;;;;;;5115593;28;20058;-67
2022/11/08 10:02:35;;;;;;;6.65;2.70;;;12.80;99.90;;;;;;5115530;28;20040;-69
2022/11/08 10:05:08;;;;;;;6.68;3.08;;;12.90;99.90;;;;;;5115484;28;20173;-68
2022/11/08 10:07:37;;;;;;;6.75;3.13;;;13.10;99.90;;;;;;5115437;28;20385;-69
2022/11/08 10:10:25;;;;;;;7.15;2.67;;;13.10;99.90;;;;;;5115509;28;20051;-68
2022/11/08 10:13:09;;;;;;;;;;;13.00;99.90;;;;;;5115513;28;20043;-68
2022/11/08 10:15:57;;;;;;;5.95;2.63;;;13.10;99.90;;;;;;5114861;28;19923;-68
2022/11/08 10:18:42;;;;;;;7.97;2.88;;;13.10;99.90;;;;;;5114501;28;20127;-68
2022/11/08 10:21:28;;;;;;;7.45;2.90;;;13.20;99.90;;;;;;5111851;27;20561;-66
2022/11/08 10:24:03;;;;;;;5.07;2.90;;;12.80;99.90;;;;;;5114193;28;20051;-69
2022/11/08 10:26:35;;;;;;;5.55;2.63;;;13.30;99.90;;;;;;5093728;28;20051;-67
2022/11/08 10:29:19;;;;;;;7.18;2.63;;;13.00;99.90;;;;;;5093407;28;20052;-68
2022/11/08 10:31:56;;;;;;;5.75;2.50;;;13.20;99.90;;;;;;5098261;28;20069;-69
2022/11/08 10:34:26;;;;;;;9.30;2.80;;;12.90;99.90;;;;;;5113684;28;20047;-70
2022/11/08 10:37:03;;;;;;;5.82;2.53;;;13.20;99.90;;;;;;5114023;28;20452;-71
2022/11/08 10:39:36;;;;;;;7.18;2.72;;;13.10;99.90;;;;;;5114264;28;20040;-71
2022/11/08 10:42:27;;;;;;;5.07;2.88;;;13.10;99.90;;;;;;5114224;28;20079;-72
2022/11/08 10:44:53;;;;;;;6.55;2.75;;;12.90;99.90;;;;;;5113673;28;20066;-70
2022/11/08 10:47:22;;;;;;;6.43;2.58;;;13.10;99.90;;;;;;5113856;28;20043;-71
2022/11/08 10:49:48;;;;;;;6.60;2.83;;;13.20;99.90;;;;;;5113162;28;20040;-71
2022/11/08 10:52:18;;;;;;;7.32;2.90;;;12.80;99.90;;;;;;5112615;28;20043;-73
2022/11/08 10:54:44;;;;;;;4.70;3.10;;;14.00;99.90;;;;;;5113699;28;20043;-69
2022/11/08 10:57:13;;;;;;;5.18;2.80;;;12.90;99.90;;;;;;5112977;28;20557;-68
2022/11/08 10:59:41;;;;;;;5.53;2.65;;;13.10;99.90;;;;;;5113443;28;20042;-69
2022/11/08 11:02:36;;;;;;;7.18;2.60;;;13.30;99.90;;;;;;5113522;28;20116;-67
2022/11/08 11:05:17;;;;;;;5.80;2.63;;;12.80;99.90;;;;;;5094550;28;20134;-70
2022/11/08 11:08:03;;;;;;;6.50;2.47;;;12.80;99.90;;;;;;5113067;28;20047;-70
2022/11/08 11:10:39;;;;;;;5.07;2.30;;;13.00;99.90;;;;;;5113115;28;20101;-70
2022/11/08 11:13:18;;;;;;;5.20;2.72;;;13.10;99.90;;;;;;5113285;27;20051;-69
2022/11/08 11:15:51;;;;;;;6.93;2.75;;;13.20;99.90;;;;;;5112954;28;20040;-72
2022/11/08 11:18:28;;;;;;;5.55;2.85;;;13.60;99.90;;;;;;5113301;28;20044;-68
2022/11/08 11:21:14;;;;;;;4.93;2.53;;;13.40;99.90;;;;;;5112924;28;20090;-70
2022/11/08 11:23:51;;;;;;;11.07;3.00;;;13.60;99.90;;;;;;5111944;28;20054;-71
2022/11/08 11:26:37;;;;;;;5.70;2.60;;;13.40;99.90;;;;;;5112669;28;20054;-69
2022/11/08 11:29:03;;;;;;;5.85;2.15;;;13.60;99.90;;;;;;5112967;28;20165;-69
2022/11/08 11:31:34;;;;;;;7.07;2.50;;;13.70;99.90;;;;;;5114054;28;20087;-69
2022/11/08 11:34:17;;;;;;;6.85;2.72;;;13.50;99.90;;;;;;5113097;28;20484;-69
2022/11/08 11:37:10;;;;;;;6.70;2.30;;;13.40;99.90;;;;;;5114097;28;20089;-68
2022/11/08 11:40:03;;;;;;;5.38;2.22;;;13.60;99.90;;;;;;5114049;28;20040;-69
2022/11/08 11:43:05;;;;;;;6.18;2.75;;;13.70;99.90;;;;;;5113693;28;20122;-70
2022/11/08 11:45:57;;;;;;;4.82;2.47;;;13.70;99.90;;;;;;5113948;28;20071;-69
2022/11/08 11:48:35;;;;;;;6.05;2.28;;;13.50;99.90;;;;;;5113819;28;20130;-70
2022/11/08 11:51:01;;;;;;;5.18;2.60;;;13.50;99.90;;;;;;5106664;27;20067;-69
2022/11/08 11:53:28;;;;;;;;;;;13.70;99.90;;;;;;5112066;28;20067;-69
2022/11/08 11:56:08;;;;;;;6.13;2.40;;;14.00;99.90;;;;;;5112502;27;19962;-70
2022/11/08 11:58:55;;;;;;;8.80;2.45;;;13.60;99.90;;;;;;5112712;28;20120;-70
2022/11/08 12:01:45;;;;;;;5.70;2.30;;;14.10;99.90;;;;;;5113086;28;20051;-71
2022/11/08 12:04:17;;;;;;;5.47;2.63;;;14.10;99.90;;;;;;5112802;28;20423;-69
2022/11/08 12:07:08;;;;;;;3.35;2.17;;;14.00;99.90;;;;;;5112506;28;20048;-71
2022/11/08 12:10:04;;;;;;;5.28;2.47;;;13.70;99.90;;;;;;5104074;28;20059;-70
2022/11/08 12:13:07;;;;;;;6.63;2.40;;;13.80;99.90;;;;;;5110553;28;20047;-70
2022/11/08 12:15:57;;;;;;;4.40;2.10;;;13.60;99.90;;;;;;5113538;28;20432;-70
2022/11/08 12:18:59;;;;;;;4.57;2.58;;;14.10;99.90;;;;;;5113454;28;20048;-70
2022/11/08 12:21:46;;;;;;;6.85;2.35;;;13.90;99.90;;;;;;5113396;28;20047;-70
2022/11/08 12:24:27;;;;;;;5.68;2.40;;;14.00;99.90;;;;;;5113096;28;20066;-69
2022/11/08 12:27:17;;;;;;;9.52;2.80;;;13.90;99.90;;;;;;5113288;28;20047;-69
2022/11/08 12:30:21;;;;;;;4.45;2.20;;;14.20;99.90;;;;;;5112785;28;20427;-72
2022/11/08 12:33:00;;;;;;;6.97;2.65;;;13.90;99.90;;;;;;5099353;28;20052;-71
2022/11/08 12:35:29;;;;;;;5.00;2.30;;;14.30;99.90;;;;;;5112918;28;20476;-70
2022/11/08 12:38:14;;;;;;;4.30;2.30;;;14.70;99.90;;;;;;5111951;28;20051;-70
2022/11/08 12:41:17;;;;;;;6.82;2.35;;;14.80;99.90;;;;;;5112743;28;20476;-70
2022/11/08 12:44:20;;;;;;;4.95;2.50;;;14.90;99.90;;;;;;5110599;28;20044;-71
2022/11/08 12:47:12;;;;;;;5.45;2.15;;;15.20;99.90;;;;;;5116127;28;20051;-69
2022/11/08 12:49:53;;;;;;;2.55;2.20;;;14.50;99.90;;;;;;5115746;28;20048;-69
2022/11/08 12:52:46;;;;;;;9.25;2.28;;;14.90;99.90;;;;;;5116269;28;20051;-68
2022/11/08 12:55:35;;;;;;;5.68;2.28;;;15.20;99.90;;;;;;5114323;28;20067;-68
2022/11/08 12:58:22;;;;;;;3.45;2.25;;;15.00;99.90;;;;;;5115718;28;20036;-68
2022/11/08 13:00:51;;;;;;;5.00;2.22;;;15.00;99.90;;;;;;5115853;28;20126;-71
2022/11/08 13:03:46;;;;;;;8.50;2.25;;;14.80;99.90;;;;;;5115654;28;20050;-70
2022/11/08 13:06:23;;;;;;;5.28;2.20;;;15.00;99.90;;;;;;5115957;28;20048;-67
2022/11/08 13:09:03;;;;;;;10.85;2.17;;;14.90;99.90;;;;;;5115291;28;20102;-69
2022/11/08 13:11:45;;;;;;;4.40;2.10;;;14.70;99.90;;;;;;5115599;28;20082;-69
2022/11/08 13:14:17;;;;;;;4.65;2.47;;;14.80;99.90;;;;;;5115455;28;20050;-66
2022/11/08 13:17:04;;;;;;;4.28;2.30;;;15.10;99.90;;;;;;5114135;28;20506;-66
2022/11/08 13:19:53;;;;;;;;;;;15.10;99.90;;;;;;5115670;28;20040;-67